sensor_id;sensor_type;location;lat;lon;timestamp;P1;durP1;ratioP1;P2;durP2;ratioP2
21128;SDS011;10722;51.910;8.352;2023-04-24T00:00:38;2.38;;;1.10;;
21128;SDS011;10722;51.910;8.352;2023-04-24T00:03:25;1.67;;;1.08;;
21128;SDS011;10722;51.910;8.352;2023-04-24T00:06:10;2.83;;;1.25;;
21128;SDS011;10722;51.910;8.352;2023-04-24T00:08:56;5.68;;;1.40;;
21128;SDS011;10722;51.910;8.352;2023-04-24T00:11:41;1.20;;;0.98;;
21128;SDS011;10722;51.910;8.352;2023-04-24T00:14:26;5.72;;;1.33;;
21128;SDS011;10722;51.910;8.352;2023-04-24T00:17:10;3.10;;;1.40;;
21128;SDS011;10722;51.910;8.352;2023-04-24T00:19:56;2.78;;;1.20;;
21128;SDS011;10722;51.910;8.352;2023-04-24T00:22:42;4.43;;;1.30;;
21128;SDS011;10722;51.910;8.352;2023-04-24T00:25:27;3.70;;;1.30;;
21128;SDS011;10722;51.910;8.352;2023-04-24T00:28:11;1.50;;;1.05;;
21128;SDS011;10722;51.910;8.352;2023-04-24T00:30:56;2.00;;;1.20;;
21128;SDS011;10722;51.910;8.352;2023-04-24T00:33:42;2.00;;;1.10;;
21128;SDS011;10722;51.910;8.352;2023-04-24T00:36:27;4.38;;;1.08;;
21128;SDS011;10722;51.910;8.352;2023-04-24T00:39:13;1.98;;;1.20;;
21128;SDS011;10722;51.910;8.352;2023-04-24T00:41:58;4.60;;;1.30;;
21128;SDS011;10722;51.910;8.352;2023-04-24T00:44:43;1.48;;;1.20;;
21128;SDS011;10722;51.910;8.352;2023-04-24T00:47:29;3.53;;;1.50;;
21128;SDS011;10722;51.910;8.352;2023-04-24T00:50:14;2.80;;;1.40;;
21128;SDS011;10722;51.910;8.352;2023-04-24T00:53:00;2.70;;;1.60;;
21128;SDS011;10722;51.910;8.352;2023-04-24T00:55:46;3.90;;;1.83;;
21128;SDS011;10722;51.910;8.352;2023-04-24T00:58:31;4.50;;;1.73;;
21128;SDS011;10722;51.910;8.352;2023-04-24T01:01:17;3.50;;;1.70;;
21128;SDS011;10722;51.910;8.352;2023-04-24T01:04:04;4.03;;;1.60;;
21128;SDS011;10722;51.910;8.352;2023-04-24T01:06:50;3.13;;;1.75;;
21128;SDS011;10722;51.910;8.352;2023-04-24T01:09:37;6.32;;;2.05;;
21128;SDS011;10722;51.910;8.352;2023-04-24T01:12:25;4.88;;;1.90;;
21128;SDS011;10722;51.910;8.352;2023-04-24T01:15:10;3.75;;;1.75;;
21128;SDS011;10722;51.910;8.352;2023-04-24T01:17:55;4.97;;;1.90;;
21128;SDS011;10722;51.910;8.352;2023-04-24T01:20:41;5.63;;;1.70;;
21128;SDS011;10722;51.910;8.352;2023-04-24T01:23:27;4.97;;;1.63;;
21128;SDS011;10722;51.910;8.352;2023-04-24T01:26:13;5.50;;;1.70;;
21128;SDS011;10722;51.910;8.352;2023-04-24T01:29:00;3.70;;;1.60;;
21128;SDS011;10722;51.910;8.352;2023-04-24T01:31:45;2.85;;;1.42;;
21128;SDS011;10722;51.910;8.352;2023-04-24T01:34:31;3.17;;;1.50;;
21128;SDS011;10722;51.910;8.352;2023-04-24T01:37:16;3.70;;;1.60;;
21128;SDS011;10722;51.910;8.352;2023-04-24T01:40:01;7.00;;;1.70;;
21128;SDS011;10722;51.910;8.352;2023-04-24T01:42:46;4.68;;;1.80;;
21128;SDS011;10722;51.910;8.352;2023-04-24T01:45:32;3.35;;;1.60;;
21128;SDS011;10722;51.910;8.352;2023-04-24T01:48:17;5.30;;;1.63;;
21128;SDS011;10722;51.910;8.352;2023-04-24T01:51:03;5.45;;;1.83;;
21128;SDS011;10722;51.910;8.352;2023-04-24T01:53:48;6.47;;;1.80;;
21128;SDS011;10722;51.910;8.352;2023-04-24T01:56:33;7.80;;;1.93;;
21128;SDS011;10722;51.910;8.352;2023-04-24T01:59:19;6.17;;;2.10;;
21128;SDS011;10722;51.910;8.352;2023-04-24T02:02:05;4.70;;;2.07;;
21128;SDS011;10722;51.910;8.352;2023-04-24T02:04:50;5.90;;;2.20;;
21128;SDS011;10722;51.910;8.352;2023-04-24T02:07:36;5.10;;;2.00;;
21128;SDS011;10722;51.910;8.352;2023-04-24T02:10:21;4.00;;;2.00;;
21128;SDS011;10722;51.910;8.352;2023-04-24T02:13:06;6.43;;;2.30;;
21128;SDS011;10722;51.910;8.352;2023-04-24T02:15:51;5.63;;;2.00;;
21128;SDS011;10722;51.910;8.352;2023-04-24T02:18:37;5.17;;;2.03;;
21128;SDS011;10722;51.910;8.352;2023-04-24T02:21:22;5.93;;;2.33;;
21128;SDS011;10722;51.910;8.352;2023-04-24T02:24:08;3.30;;;2.00;;
21128;SDS011;10722;51.910;8.352;2023-04-24T02:26:52;5.13;;;2.00;;
21128;SDS011;10722;51.910;8.352;2023-04-24T02:29:37;4.43;;;2.10;;
21128;SDS011;10722;51.910;8.352;2023-04-24T02:32:22;4.33;;;2.00;;
21128;SDS011;10722;51.910;8.352;2023-04-24T02:35:07;5.77;;;2.03;;
21128;SDS011;10722;51.910;8.352;2023-04-24T02:37:53;4.80;;;1.90;;
21128;SDS011;10722;51.910;8.352;2023-04-24T02:40:38;6.10;;;2.27;;
21128;SDS011;10722;51.910;8.352;2023-04-24T02:43:24;6.70;;;2.20;;
21128;SDS011;10722;51.910;8.352;2023-04-24T02:46:09;2.60;;;1.60;;
21128;SDS011;10722;51.910;8.352;2023-04-24T02:48:54;5.40;;;1.90;;
21128;SDS011;10722;51.910;8.352;2023-04-24T02:51:39;4.73;;;1.70;;
21128;SDS011;10722;51.910;8.352;2023-04-24T02:54:24;3.80;;;1.90;;
21128;SDS011;10722;51.910;8.352;2023-04-24T02:57:10;3.43;;;1.90;;
21128;SDS011;10722;51.910;8.352;2023-04-24T02:59:55;4.10;;;1.90;;
21128;SDS011;10722;51.910;8.352;2023-04-24T03:02:40;4.47;;;1.67;;
21128;SDS011;10722;51.910;8.352;2023-04-24T03:05:25;4.27;;;1.73;;
21128;SDS011;10722;51.910;8.352;2023-04-24T03:08:11;6.43;;;2.10;;
21128;SDS011;10722;51.910;8.352;2023-04-24T03:10:56;4.63;;;1.90;;
21128;SDS011;10722;51.910;8.352;2023-04-24T03:13:41;4.63;;;1.80;;
21128;SDS011;10722;51.910;8.352;2023-04-24T03:16:26;2.40;;;1.57;;
21128;SDS011;10722;51.910;8.352;2023-04-24T03:19:12;3.63;;;1.80;;
21128;SDS011;10722;51.910;8.352;2023-04-24T03:21:57;2.77;;;1.67;;
21128;SDS011;10722;51.910;8.352;2023-04-24T03:24:42;4.13;;;2.03;;
21128;SDS011;10722;51.910;8.352;2023-04-24T03:27:27;5.87;;;1.70;;
21128;SDS011;10722;51.910;8.352;2023-04-24T03:30:12;4.35;;;1.90;;
21128;SDS011;10722;51.910;8.352;2023-04-24T03:32:58;3.90;;;1.90;;
21128;SDS011;10722;51.910;8.352;2023-04-24T03:35:43;4.13;;;2.00;;
21128;SDS011;10722;51.910;8.352;2023-04-24T03:38:28;5.23;;;2.30;;
21128;SDS011;10722;51.910;8.352;2023-04-24T03:41:13;5.13;;;2.00;;
21128;SDS011;10722;51.910;8.352;2023-04-24T03:43:58;5.33;;;2.50;;
21128;SDS011;10722;51.910;8.352;2023-04-24T03:46:44;7.00;;;2.30;;
21128;SDS011;10722;51.910;8.352;2023-04-24T03:49:29;5.43;;;2.50;;
21128;SDS011;10722;51.910;8.352;2023-04-24T03:52:14;8.70;;;2.67;;
21128;SDS011;10722;51.910;8.352;2023-04-24T03:55:00;7.40;;;2.90;;
21128;SDS011;10722;51.910;8.352;2023-04-24T03:57:45;7.30;;;3.00;;
21128;SDS011;10722;51.910;8.352;2023-04-24T04:00:30;7.43;;;2.90;;
21128;SDS011;10722;51.910;8.352;2023-04-24T04:03:15;8.37;;;3.17;;
21128;SDS011;10722;51.910;8.352;2023-04-24T04:06:01;9.60;;;3.80;;
21128;SDS011;10722;51.910;8.352;2023-04-24T04:08:46;8.90;;;3.30;;
21128;SDS011;10722;51.910;8.352;2023-04-24T04:11:31;8.27;;;3.00;;
21128;SDS011;10722;51.910;8.352;2023-04-24T04:14:17;11.57;;;3.80;;
21128;SDS011;10722;51.910;8.352;2023-04-24T04:17:02;9.03;;;3.50;;
21128;SDS011;10722;51.910;8.352;2023-04-24T04:19:48;10.13;;;3.90;;
21128;SDS011;10722;51.910;8.352;2023-04-24T04:22:33;11.80;;;4.07;;
21128;SDS011;10722;51.910;8.352;2023-04-24T04:25:18;10.67;;;4.30;;
21128;SDS011;10722;51.910;8.352;2023-04-24T04:28:04;12.80;;;4.77;;
21128;SDS011;10722;51.910;8.352;2023-04-24T04:30:49;11.10;;;4.60;;
21128;SDS011;10722;51.910;8.352;2023-04-24T04:33:35;12.20;;;5.57;;
21128;SDS011;10722;51.910;8.352;2023-04-24T04:36:20;14.63;;;5.90;;
21128;SDS011;10722;51.910;8.352;2023-04-24T04:39:05;14.93;;;7.70;;
21128;SDS011;10722;51.910;8.352;2023-04-24T04:41:51;15.53;;;6.97;;
21128;SDS011;10722;51.910;8.352;2023-04-24T04:44:36;17.93;;;8.00;;
21128;SDS011;10722;51.910;8.352;2023-04-24T04:47:22;19.00;;;10.00;;
21128;SDS011;10722;51.910;8.352;2023-04-24T04:50:07;19.53;;;10.00;;
21128;SDS011;10722;51.910;8.352;2023-04-24T04:52:53;19.17;;;11.33;;
21128;SDS011;10722;51.910;8.352;2023-04-24T04:55:38;20.07;;;11.33;;
21128;SDS011;10722;51.910;8.352;2023-04-24T04:58:23;19.10;;;11.03;;
21128;SDS011;10722;51.910;8.352;2023-04-24T05:01:09;21.07;;;11.53;;
21128;SDS011;10722;51.910;8.352;2023-04-24T05:03:54;21.53;;;11.67;;
21128;SDS011;10722;51.910;8.352;2023-04-24T05:06:40;21.57;;;11.83;;
21128;SDS011;10722;51.910;8.352;2023-04-24T05:09:25;19.73;;;11.03;;
21128;SDS011;10722;51.910;8.352;2023-04-24T05:12:11;20.30;;;11.70;;
21128;SDS011;10722;51.910;8.352;2023-04-24T05:14:57;24.67;;;12.30;;
21128;SDS011;10722;51.910;8.352;2023-04-24T05:17:42;22.57;;;12.03;;
21128;SDS011;10722;51.910;8.352;2023-04-24T05:20:29;21.90;;;12.73;;
21128;SDS011;10722;51.910;8.352;2023-04-24T05:23:15;22.80;;;13.17;;
21128;SDS011;10722;51.910;8.352;2023-04-24T05:26:00;23.60;;;14.00;;
21128;SDS011;10722;51.910;8.352;2023-04-24T05:28:46;23.43;;;13.07;;
21128;SDS011;10722;51.910;8.352;2023-04-24T05:31:31;22.20;;;13.60;;
21128;SDS011;10722;51.910;8.352;2023-04-24T05:34:17;25.30;;;14.93;;
21128;SDS011;10722;51.910;8.352;2023-04-24T05:37:02;25.80;;;15.30;;
21128;SDS011;10722;51.910;8.352;2023-04-24T05:39:47;25.97;;;15.07;;
21128;SDS011;10722;51.910;8.352;2023-04-24T05:42:33;25.97;;;16.73;;
21128;SDS011;10722;51.910;8.352;2023-04-24T05:45:18;24.50;;;14.63;;
21128;SDS011;10722;51.910;8.352;2023-04-24T05:48:04;26.87;;;16.00;;
21128;SDS011;10722;51.910;8.352;2023-04-24T05:50:49;25.60;;;15.70;;
21128;SDS011;10722;51.910;8.352;2023-04-24T05:53:34;26.30;;;16.37;;
21128;SDS011;10722;51.910;8.352;2023-04-24T05:56:20;25.60;;;15.57;;
21128;SDS011;10722;51.910;8.352;2023-04-24T05:59:05;25.90;;;15.90;;
21128;SDS011;10722;51.910;8.352;2023-04-24T06:01:51;26.10;;;16.10;;
21128;SDS011;10722;51.910;8.352;2023-04-24T06:04:36;25.63;;;15.70;;
21128;SDS011;10722;51.910;8.352;2023-04-24T06:07:22;23.87;;;13.77;;
21128;SDS011;10722;51.910;8.352;2023-04-24T06:10:08;25.03;;;15.30;;
21128;SDS011;10722;51.910;8.352;2023-04-24T06:12:53;26.63;;;16.37;;
21128;SDS011;10722;51.910;8.352;2023-04-24T06:15:38;24.83;;;16.23;;
21128;SDS011;10722;51.910;8.352;2023-04-24T06:18:23;26.00;;;16.00;;
21128;SDS011;10722;51.910;8.352;2023-04-24T06:21:09;25.80;;;14.90;;
21128;SDS011;10722;51.910;8.352;2023-04-24T06:23:54;26.33;;;15.87;;
21128;SDS011;10722;51.910;8.352;2023-04-24T06:26:39;24.37;;;15.50;;
21128;SDS011;10722;51.910;8.352;2023-04-24T06:29:24;25.53;;;16.13;;
21128;SDS011;10722;51.910;8.352;2023-04-24T06:32:09;26.37;;;16.07;;
21128;SDS011;10722;51.910;8.352;2023-04-24T06:34:54;27.67;;;16.23;;
21128;SDS011;10722;51.910;8.352;2023-04-24T06:37:41;27.93;;;17.07;;
21128;SDS011;10722;51.910;8.352;2023-04-24T06:40:27;27.50;;;16.13;;
21128;SDS011;10722;51.910;8.352;2023-04-24T06:43:12;27.33;;;15.83;;
21128;SDS011;10722;51.910;8.352;2023-04-24T06:45:58;27.87;;;16.40;;
21128;SDS011;10722;51.910;8.352;2023-04-24T06:48:44;27.77;;;16.37;;
21128;SDS011;10722;51.910;8.352;2023-04-24T06:51:29;25.93;;;16.87;;
21128;SDS011;10722;51.910;8.352;2023-04-24T06:54:14;24.43;;;15.40;;
21128;SDS011;10722;51.910;8.352;2023-04-24T06:57:00;23.90;;;14.23;;
21128;SDS011;10722;51.910;8.352;2023-04-24T06:59:45;24.30;;;14.87;;
21128;SDS011;10722;51.910;8.352;2023-04-24T07:02:30;23.07;;;13.60;;
21128;SDS011;10722;51.910;8.352;2023-04-24T07:05:16;21.27;;;13.47;;
21128;SDS011;10722;51.910;8.352;2023-04-24T07:08:01;22.97;;;12.27;;
21128;SDS011;10722;51.910;8.352;2023-04-24T07:10:46;21.00;;;12.67;;
21128;SDS011;10722;51.910;8.352;2023-04-24T07:13:32;21.13;;;12.73;;
21128;SDS011;10722;51.910;8.352;2023-04-24T07:16:17;18.97;;;12.23;;
21128;SDS011;10722;51.910;8.352;2023-04-24T07:19:02;21.03;;;12.30;;
21128;SDS011;10722;51.910;8.352;2023-04-24T07:21:48;20.77;;;11.00;;
21128;SDS011;10722;51.910;8.352;2023-04-24T07:24:33;17.97;;;10.67;;
21128;SDS011;10722;51.910;8.352;2023-04-24T07:27:18;20.23;;;10.57;;
21128;SDS011;10722;51.910;8.352;2023-04-24T07:30:03;20.60;;;10.43;;
21128;SDS011;10722;51.910;8.352;2023-04-24T07:32:49;18.20;;;10.53;;
21128;SDS011;10722;51.910;8.352;2023-04-24T07:35:34;16.93;;;8.70;;
21128;SDS011;10722;51.910;8.352;2023-04-24T07:38:20;18.10;;;9.50;;
21128;SDS011;10722;51.910;8.352;2023-04-24T07:41:05;18.57;;;9.40;;
21128;SDS011;10722;51.910;8.352;2023-04-24T07:43:51;17.73;;;9.13;;
21128;SDS011;10722;51.910;8.352;2023-04-24T07:46:36;15.57;;;8.30;;
21128;SDS011;10722;51.910;8.352;2023-04-24T07:49:21;17.70;;;8.10;;
21128;SDS011;10722;51.910;8.352;2023-04-24T07:52:07;15.53;;;7.70;;
21128;SDS011;10722;51.910;8.352;2023-04-24T07:54:52;16.27;;;8.00;;
21128;SDS011;10722;51.910;8.352;2023-04-24T07:57:39;15.80;;;8.20;;
21128;SDS011;10722;51.910;8.352;2023-04-24T08:00:24;14.93;;;6.93;;
21128;SDS011;10722;51.910;8.352;2023-04-24T08:03:09;15.93;;;8.13;;
21128;SDS011;10722;51.910;8.352;2023-04-24T08:05:54;14.33;;;7.40;;
21128;SDS011;10722;51.910;8.352;2023-04-24T08:08:40;13.67;;;6.90;;
21128;SDS011;10722;51.910;8.352;2023-04-24T08:11:25;14.53;;;7.73;;
21128;SDS011;10722;51.910;8.352;2023-04-24T08:14:11;15.20;;;7.23;;
21128;SDS011;10722;51.910;8.352;2023-04-24T08:16:57;14.20;;;7.20;;
21128;SDS011;10722;51.910;8.352;2023-04-24T08:19:42;13.07;;;6.50;;
21128;SDS011;10722;51.910;8.352;2023-04-24T08:22:28;12.30;;;5.80;;
21128;SDS011;10722;51.910;8.352;2023-04-24T08:25:13;12.37;;;4.60;;
21128;SDS011;10722;51.910;8.352;2023-04-24T08:27:58;10.43;;;4.27;;
21128;SDS011;10722;51.910;8.352;2023-04-24T08:30:44;10.93;;;5.10;;
21128;SDS011;10722;51.910;8.352;2023-04-24T08:33:29;11.87;;;4.90;;
21128;SDS011;10722;51.910;8.352;2023-04-24T08:36:14;9.90;;;4.50;;
21128;SDS011;10722;51.910;8.352;2023-04-24T08:38:59;12.47;;;5.10;;
21128;SDS011;10722;51.910;8.352;2023-04-24T08:41:45;11.10;;;4.83;;
21128;SDS011;10722;51.910;8.352;2023-04-24T08:44:36;10.30;;;4.07;;
21128;SDS011;10722;51.910;8.352;2023-04-24T08:47:22;11.90;;;4.50;;
21128;SDS011;10722;51.910;8.352;2023-04-24T08:50:08;11.10;;;4.70;;
21128;SDS011;10722;51.910;8.352;2023-04-24T08:53:00;12.07;;;4.60;;
21128;SDS011;10722;51.910;8.352;2023-04-24T08:55:50;10.93;;;4.60;;
21128;SDS011;10722;51.910;8.352;2023-04-24T08:58:38;8.30;;;3.93;;
21128;SDS011;10722;51.910;8.352;2023-04-24T09:01:27;10.60;;;3.90;;
21128;SDS011;10722;51.910;8.352;2023-04-24T09:04:13;8.73;;;3.60;;
21128;SDS011;10722;51.910;8.352;2023-04-24T09:07:00;10.23;;;3.90;;
21128;SDS011;10722;51.910;8.352;2023-04-24T09:09:46;9.90;;;4.20;;
21128;SDS011;10722;51.910;8.352;2023-04-24T09:12:33;8.60;;;3.93;;
21128;SDS011;10722;51.910;8.352;2023-04-24T09:15:19;9.03;;;3.17;;
21128;SDS011;10722;51.910;8.352;2023-04-24T09:18:04;7.00;;;2.90;;
21128;SDS011;10722;51.910;8.352;2023-04-24T09:20:57;6.50;;;2.97;;
21128;SDS011;10722;51.910;8.352;2023-04-24T09:24:01;6.03;;;2.70;;
21128;SDS011;10722;51.910;8.352;2023-04-24T09:26:49;8.30;;;3.07;;
21128;SDS011;10722;51.910;8.352;2023-04-24T09:29:54;6.13;;;2.80;;
21128;SDS011;10722;51.910;8.352;2023-04-24T09:33:15;5.50;;;2.70;;
21128;SDS011;10722;51.910;8.352;2023-04-24T09:36:00;5.20;;;2.57;;
21128;SDS011;10722;51.910;8.352;2023-04-24T09:38:46;6.57;;;2.70;;
21128;SDS011;10722;51.910;8.352;2023-04-24T09:41:32;5.00;;;2.43;;
21128;SDS011;10722;51.910;8.352;2023-04-24T09:44:18;5.83;;;2.90;;
21128;SDS011;10722;51.910;8.352;2023-04-24T09:47:05;5.30;;;2.60;;
21128;SDS011;10722;51.910;8.352;2023-04-24T09:49:57;6.47;;;2.53;;
21128;SDS011;10722;51.910;8.352;2023-04-24T09:52:43;7.20;;;2.80;;
21128;SDS011;10722;51.910;8.352;2023-04-24T09:55:30;5.03;;;2.53;;
21128;SDS011;10722;51.910;8.352;2023-04-24T09:58:16;7.60;;;2.30;;
21128;SDS011;10722;51.910;8.352;2023-04-24T10:01:01;5.00;;;2.53;;
21128;SDS011;10722;51.910;8.352;2023-04-24T10:03:47;5.50;;;2.40;;
21128;SDS011;10722;51.910;8.352;2023-04-24T10:06:33;3.20;;;2.00;;
21128;SDS011;10722;51.910;8.352;2023-04-24T10:09:20;4.77;;;2.33;;
21128;SDS011;10722;51.910;8.352;2023-04-24T10:12:06;5.30;;;2.47;;
21128;SDS011;10722;51.910;8.352;2023-04-24T10:14:52;5.00;;;2.40;;
21128;SDS011;10722;51.910;8.352;2023-04-24T10:17:38;6.30;;;2.87;;
21128;SDS011;10722;51.910;8.352;2023-04-24T10:20:27;7.17;;;2.93;;
21128;SDS011;10722;51.910;8.352;2023-04-24T10:23:13;9.73;;;3.90;;
21128;SDS011;10722;51.910;8.352;2023-04-24T10:25:59;12.23;;;5.43;;
21128;SDS011;10722;51.910;8.352;2023-04-24T10:28:45;12.97;;;5.80;;
21128;SDS011;10722;51.910;8.352;2023-04-24T10:31:31;11.13;;;4.90;;
21128;SDS011;10722;51.910;8.352;2023-04-24T10:34:17;13.87;;;6.07;;
21128;SDS011;10722;51.910;8.352;2023-04-24T10:37:05;10.33;;;4.40;;
21128;SDS011;10722;51.910;8.352;2023-04-24T10:39:50;10.07;;;4.77;;
21128;SDS011;10722;51.910;8.352;2023-04-24T10:42:36;10.73;;;4.10;;
21128;SDS011;10722;51.910;8.352;2023-04-24T10:45:25;11.83;;;4.50;;
21128;SDS011;10722;51.910;8.352;2023-04-24T10:48:10;9.90;;;4.00;;
21128;SDS011;10722;51.910;8.352;2023-04-24T10:50:56;7.73;;;3.67;;
21128;SDS011;10722;51.910;8.352;2023-04-24T10:53:41;9.80;;;4.07;;
21128;SDS011;10722;51.910;8.352;2023-04-24T10:56:27;7.27;;;3.43;;
21128;SDS011;10722;51.910;8.352;2023-04-24T10:59:12;9.40;;;4.30;;
21128;SDS011;10722;51.910;8.352;2023-04-24T11:02:09;9.30;;;4.07;;
21128;SDS011;10722;51.910;8.352;2023-04-24T11:04:55;10.70;;;4.83;;
21128;SDS011;10722;51.910;8.352;2023-04-24T11:16:52;13.90;;;7.67;;
21128;SDS011;10722;51.910;8.352;2023-04-24T11:19:38;15.00;;;7.27;;
21128;SDS011;10722;51.910;8.352;2023-04-24T11:22:24;15.47;;;7.93;;
21128;SDS011;10722;51.910;8.352;2023-04-24T11:25:10;14.20;;;7.57;;
21128;SDS011;10722;51.910;8.352;2023-04-24T11:28:05;12.70;;;7.10;;
21128;SDS011;10722;51.910;8.352;2023-04-24T11:30:50;15.77;;;7.50;;
21128;SDS011;10722;51.910;8.352;2023-04-24T11:33:36;13.80;;;7.50;;
21128;SDS011;10722;51.910;8.352;2023-04-24T11:36:21;15.30;;;7.97;;
21128;SDS011;10722;51.910;8.352;2023-04-24T11:39:06;14.47;;;7.77;;
21128;SDS011;10722;51.910;8.352;2023-04-24T11:41:51;13.67;;;7.30;;
21128;SDS011;10722;51.910;8.352;2023-04-24T11:44:36;16.43;;;8.00;;
21128;SDS011;10722;51.910;8.352;2023-04-24T11:47:29;13.47;;;6.70;;
21128;SDS011;10722;51.910;8.352;2023-04-24T11:50:17;15.50;;;7.20;;
21128;SDS011;10722;51.910;8.352;2023-04-24T11:53:03;14.77;;;6.93;;
21128;SDS011;10722;51.910;8.352;2023-04-24T11:55:48;12.63;;;5.33;;
21128;SDS011;10722;51.910;8.352;2023-04-24T11:58:37;12.40;;;4.93;;
21128;SDS011;10722;51.910;8.352;2023-04-24T12:01:23;11.03;;;4.60;;
21128;SDS011;10722;51.910;8.352;2023-04-24T12:04:09;9.60;;;4.00;;
21128;SDS011;10722;51.910;8.352;2023-04-24T12:07:04;9.50;;;3.80;;
21128;SDS011;10722;51.910;8.352;2023-04-24T12:09:56;10.57;;;4.10;;
21128;SDS011;10722;51.910;8.352;2023-04-24T12:12:43;11.83;;;4.20;;
21128;SDS011;10722;51.910;8.352;2023-04-24T12:15:30;11.50;;;4.67;;
21128;SDS011;10722;51.910;8.352;2023-04-24T12:18:16;12.60;;;5.10;;
21128;SDS011;10722;51.910;8.352;2023-04-24T12:21:17;12.53;;;4.83;;
21128;SDS011;10722;51.910;8.352;2023-04-24T12:24:07;13.93;;;5.60;;
21128;SDS011;10722;51.910;8.352;2023-04-24T12:26:52;13.70;;;6.03;;
21128;SDS011;10722;51.910;8.352;2023-04-24T12:29:37;14.83;;;5.87;;
21128;SDS011;10722;51.910;8.352;2023-04-24T12:32:40;16.57;;;7.03;;
21128;SDS011;10722;51.910;8.352;2023-04-24T12:35:30;15.90;;;6.27;;
21128;SDS011;10722;51.910;8.352;2023-04-24T12:38:16;15.30;;;7.00;;
21128;SDS011;10722;51.910;8.352;2023-04-24T12:41:07;16.37;;;7.40;;
21128;SDS011;10722;51.910;8.352;2023-04-24T12:43:55;17.73;;;8.57;;
21128;SDS011;10722;51.910;8.352;2023-04-24T12:46:40;19.23;;;8.47;;
21128;SDS011;10722;51.910;8.352;2023-04-24T12:49:25;17.27;;;8.43;;
21128;SDS011;10722;51.910;8.352;2023-04-24T12:52:11;19.73;;;8.07;;
21128;SDS011;10722;51.910;8.352;2023-04-24T12:54:57;16.90;;;8.20;;
21128;SDS011;10722;51.910;8.352;2023-04-24T12:57:43;21.80;;;9.13;;
21128;SDS011;10722;51.910;8.352;2023-04-24T13:00:29;21.60;;;10.47;;
21128;SDS011;10722;51.910;8.352;2023-04-24T13:03:14;22.80;;;10.53;;
21128;SDS011;10722;51.910;8.352;2023-04-24T13:06:00;24.40;;;10.93;;
21128;SDS011;10722;51.910;8.352;2023-04-24T13:08:45;22.93;;;11.13;;
21128;SDS011;10722;51.910;8.352;2023-04-24T13:11:30;25.13;;;11.03;;
21128;SDS011;10722;51.910;8.352;2023-04-24T13:14:15;22.03;;;10.73;;
21128;SDS011;10722;51.910;8.352;2023-04-24T13:17:01;29.93;;;12.10;;
21128;SDS011;10722;51.910;8.352;2023-04-24T13:19:48;28.77;;;11.37;;
21128;SDS011;10722;51.910;8.352;2023-04-24T13:22:35;27.43;;;11.40;;
21128;SDS011;10722;51.910;8.352;2023-04-24T13:25:20;24.87;;;11.40;;
21128;SDS011;10722;51.910;8.352;2023-04-24T13:28:05;28.57;;;11.80;;
21128;SDS011;10722;51.910;8.352;2023-04-24T13:30:51;29.30;;;12.27;;
21128;SDS011;10722;51.910;8.352;2023-04-24T13:33:36;28.30;;;11.73;;
21128;SDS011;10722;51.910;8.352;2023-04-24T13:36:21;30.80;;;12.23;;
21128;SDS011;10722;51.910;8.352;2023-04-24T13:39:07;30.23;;;12.60;;
21128;SDS011;10722;51.910;8.352;2023-04-24T13:41:55;31.10;;;11.80;;
21128;SDS011;10722;51.910;8.352;2023-04-24T13:44:41;34.00;;;11.90;;
21128;SDS011;10722;51.910;8.352;2023-04-24T13:47:27;30.30;;;12.47;;
21128;SDS011;10722;51.910;8.352;2023-04-24T13:50:12;27.43;;;12.27;;
21128;SDS011;10722;51.910;8.352;2023-04-24T13:52:57;34.80;;;12.57;;
21128;SDS011;10722;51.910;8.352;2023-04-24T13:55:45;28.53;;;12.53;;
21128;SDS011;10722;51.910;8.352;2023-04-24T13:58:30;26.53;;;11.87;;
21128;SDS011;10722;51.910;8.352;2023-04-24T14:01:15;26.23;;;10.27;;
21128;SDS011;10722;51.910;8.352;2023-04-24T14:04:01;29.43;;;10.63;;
21128;SDS011;10722;51.910;8.352;2023-04-24T14:06:46;26.93;;;11.20;;
21128;SDS011;10722;51.910;8.352;2023-04-24T14:09:32;25.77;;;11.37;;
21128;SDS011;10722;51.910;8.352;2023-04-24T14:12:17;26.17;;;11.73;;
21128;SDS011;10722;51.910;8.352;2023-04-24T14:15:03;25.57;;;11.13;;
21128;SDS011;10722;51.910;8.352;2023-04-24T14:17:48;28.10;;;10.50;;
21128;SDS011;10722;51.910;8.352;2023-04-24T14:20:34;23.43;;;9.40;;
21128;SDS011;10722;51.910;8.352;2023-04-24T14:23:19;22.93;;;10.00;;
21128;SDS011;10722;51.910;8.352;2023-04-24T14:26:05;23.60;;;8.50;;
21128;SDS011;10722;51.910;8.352;2023-04-24T14:28:51;22.17;;;8.57;;
21128;SDS011;10722;51.910;8.352;2023-04-24T14:31:42;22.87;;;7.80;;
21128;SDS011;10722;51.910;8.352;2023-04-24T14:34:27;21.77;;;6.70;;
21128;SDS011;10722;51.910;8.352;2023-04-24T14:37:13;19.10;;;7.03;;
21128;SDS011;10722;51.910;8.352;2023-04-24T14:39:58;19.47;;;6.80;;
21128;SDS011;10722;51.910;8.352;2023-04-24T14:43:04;19.20;;;7.17;;
21128;SDS011;10722;51.910;8.352;2023-04-24T14:45:49;19.57;;;6.30;;
21128;SDS011;10722;51.910;8.352;2023-04-24T14:48:35;21.10;;;6.10;;
21128;SDS011;10722;51.910;8.352;2023-04-24T14:51:22;17.40;;;5.80;;
21128;SDS011;10722;51.910;8.352;2023-04-24T14:54:07;13.67;;;5.03;;
21128;SDS011;10722;51.910;8.352;2023-04-24T14:56:52;17.13;;;4.83;;
21128;SDS011;10722;51.910;8.352;2023-04-24T14:59:39;13.60;;;5.40;;
21128;SDS011;10722;51.910;8.352;2023-04-24T15:02:25;16.37;;;5.23;;
21128;SDS011;10722;51.910;8.352;2023-04-24T15:05:11;14.57;;;4.50;;
21128;SDS011;10722;51.910;8.352;2023-04-24T15:07:57;14.87;;;5.43;;
21128;SDS011;10722;51.910;8.352;2023-04-24T15:10:42;15.20;;;5.03;;
21128;SDS011;10722;51.910;8.352;2023-04-24T15:13:29;12.33;;;4.37;;
21128;SDS011;10722;51.910;8.352;2023-04-24T15:16:16;13.43;;;4.20;;
21128;SDS011;10722;51.910;8.352;2023-04-24T15:19:02;14.10;;;3.80;;
21128;SDS011;10722;51.910;8.352;2023-04-24T15:21:48;14.17;;;3.80;;
21128;SDS011;10722;51.910;8.352;2023-04-24T15:24:33;12.03;;;3.70;;
21128;SDS011;10722;51.910;8.352;2023-04-24T15:27:19;11.47;;;3.87;;
21128;SDS011;10722;51.910;8.352;2023-04-24T15:30:04;11.63;;;3.97;;
21128;SDS011;10722;51.910;8.352;2023-04-24T15:32:50;11.63;;;4.17;;
21128;SDS011;10722;51.910;8.352;2023-04-24T15:35:35;13.40;;;4.77;;
21128;SDS011;10722;51.910;8.352;2023-04-24T15:38:21;14.43;;;4.70;;
21128;SDS011;10722;51.910;8.352;2023-04-24T15:41:06;15.33;;;4.67;;
21128;SDS011;10722;51.910;8.352;2023-04-24T15:43:51;14.00;;;4.53;;
21128;SDS011;10722;51.910;8.352;2023-04-24T15:46:36;13.80;;;4.27;;
21128;SDS011;10722;51.910;8.352;2023-04-24T15:49:22;15.73;;;4.20;;
21128;SDS011;10722;51.910;8.352;2023-04-24T15:52:07;13.10;;;4.10;;
21128;SDS011;10722;51.910;8.352;2023-04-24T15:54:53;11.80;;;3.90;;
21128;SDS011;10722;51.910;8.352;2023-04-24T15:57:39;13.53;;;4.07;;
21128;SDS011;10722;51.910;8.352;2023-04-24T16:00:24;11.17;;;4.03;;
21128;SDS011;10722;51.910;8.352;2023-04-24T16:03:09;11.53;;;3.67;;
21128;SDS011;10722;51.910;8.352;2023-04-24T16:05:55;12.00;;;3.87;;
21128;SDS011;10722;51.910;8.352;2023-04-24T16:08:40;12.43;;;3.83;;
21128;SDS011;10722;51.910;8.352;2023-04-24T16:11:26;11.77;;;3.73;;
21128;SDS011;10722;51.910;8.352;2023-04-24T16:14:11;14.03;;;3.83;;
21128;SDS011;10722;51.910;8.352;2023-04-24T16:16:56;12.67;;;3.67;;
21128;SDS011;10722;51.910;8.352;2023-04-24T16:19:41;11.67;;;3.27;;
21128;SDS011;10722;51.910;8.352;2023-04-24T16:22:27;15.70;;;3.57;;
21128;SDS011;10722;51.910;8.352;2023-04-24T16:25:12;12.57;;;3.70;;
21128;SDS011;10722;51.910;8.352;2023-04-24T16:27:58;15.40;;;3.87;;
21128;SDS011;10722;51.910;8.352;2023-04-24T16:30:43;16.03;;;4.23;;
21128;SDS011;10722;51.910;8.352;2023-04-24T16:33:28;14.67;;;3.67;;
21128;SDS011;10722;51.910;8.352;2023-04-24T16:36:13;11.30;;;3.33;;